createdAt,value
2022-07-28T00:00:20.179Z,100047.91
2022-07-28T00:02:50.723Z,100050.59
2022-07-28T00:05:21.045Z,100053.03
2022-07-28T00:07:52.740Z,100039.38
2022-07-28T00:10:23.424Z,100038.31
2022-07-28T00:12:54.246Z,100036.78
2022-07-28T00:15:24.821Z,100040.28
2022-07-28T00:17:55.154Z,100051.03
2022-07-28T00:20:26.675Z,100063.19
2022-07-28T00:22:57.177Z,100065.63
2022-07-28T00:25:28.757Z,100068.66
2022-07-28T00:27:59.499Z,100046.09
2022-07-28T00:30:30.939Z,100044.53
2022-07-28T00:33:02.135Z,100044.31
2022-07-28T00:35:36.323Z,100041.63
2022-07-28T00:38:07.390Z,100027.13
2022-07-28T00:41:00.844Z,100021.75
2022-07-28T00:43:31.491Z,100028.28
2022-07-28T00:46:02.108Z,100049.53
2022-07-28T00:48:32.060Z,100060.06
2022-07-28T00:51:02.780Z,100053.88
2022-07-28T00:53:33.581Z,100025.13
2022-07-28T00:56:06.559Z,100020.53
2022-07-28T00:58:39.585Z,100018.19
2022-07-28T01:01:13.223Z,100017.16
2022-07-28T01:03:47.406Z,100024.97
2022-07-28T01:06:57.357Z,100032.56
2022-07-28T01:10:04.079Z,100047.03
2022-07-28T01:12:45.143Z,100038.97
2022-07-28T01:15:28.375Z,100044.94
2022-07-28T01:18:42.753Z,100047.13
2022-07-28T01:21:18.297Z,100033.69
2022-07-28T01:24:13.008Z,100027.00
2022-07-28T01:27:25.518Z,100025.72
2022-07-28T01:30:20.547Z,100028.41
2022-07-28T01:33:19.445Z,100034.34
2022-07-28T01:35:59.839Z,100053.75
2022-07-28T01:38:34.379Z,100070.69
2022-07-28T01:41:13.372Z,100073.88
2022-07-28T01:43:48.320Z,100067.66
2022-07-28T01:46:22.456Z,100072.00
2022-07-28T01:48:54.663Z,100068.00
2022-07-28T01:51:29.208Z,100051.63
2022-07-28T01:54:02.527Z,100024.72
2022-07-28T01:56:36.304Z,100016.75
2022-07-28T01:59:11.403Z,100019.53
2022-07-28T02:01:46.570Z,100022.78
2022-07-28T02:04:23.760Z,100026.06
2022-07-28T02:06:57.490Z,100032.06
2022-07-28T02:09:29.990Z,100027.22
2022-07-28T02:12:03.566Z,100030.72
2022-07-28T02:14:39.033Z,100035.06
2022-07-28T02:17:18.468Z,100019.16
2022-07-28T02:19:50.975Z,100008.97
2022-07-28T02:22:23.399Z,100009.78
2022-07-28T02:24:55.547Z,100010.03
2022-07-28T02:27:49.237Z,100018.09
2022-07-28T02:31:06.040Z,100037.75
2022-07-28T02:33:58.834Z,100039.38
2022-07-28T02:36:54.997Z,100038.31
2022-07-28T02:40:00.953Z,100032.63
2022-07-28T02:46:31.034Z,100014.19
2022-07-28T02:50:13.127Z,100017.22
2022-07-28T02:57:21.826Z,100034.00
2022-07-28T03:00:43.362Z,100016.28
2022-07-28T03:10:33.442Z,100026.88
2022-07-28T03:22:34.762Z,100024.28
2022-07-28T03:26:03.750Z,100015.53
2022-07-28T03:29:32.103Z,100006.50
2022-07-28T03:37:05.514Z,99999.16
2022-07-28T03:40:00.088Z,100008.66
2022-07-28T03:43:05.106Z,100022.75
2022-07-28T03:45:49.333Z,100029.59
2022-07-28T03:48:43.166Z,100014.53
2022-07-28T03:51:16.343Z,100000.63
2022-07-28T03:54:12.957Z,100007.44
2022-07-28T03:59:44.737Z,99992.44
2022-07-28T04:02:43.611Z,99993.28
2022-07-28T04:05:42.063Z,99994.41
2022-07-28T04:08:12.687Z,99986.34
2022-07-28T04:11:01.097Z,99985.84
2022-07-28T04:13:47.803Z,99983.19
2022-07-28T04:16:30.134Z,99987.53
2022-07-28T04:19:01.481Z,99978.13
2022-07-28T04:21:32.613Z,99975.19
2022-07-28T04:24:06.712Z,99979.56
2022-07-28T04:27:20.365Z,99981.19
2022-07-28T04:30:31.426Z,99966.63
2022-07-28T04:37:36.119Z,99959.16
2022-07-28T04:52:13.878Z,99940.41
2022-07-28T04:54:37.457Z,99936.91
2022-07-28T05:04:44.871Z,99922.94
2022-07-28T05:07:42.471Z,99920.25
2022-07-28T05:10:15.651Z,99918.63
2022-07-28T05:12:49.087Z,99913.56
2022-07-28T05:15:26.448Z,99901.41
2022-07-28T05:18:08.864Z,99898.16
2022-07-28T05:20:39.823Z,99891.97
2022-07-28T05:23:13.343Z,99880.06
2022-07-28T05:25:50.407Z,99880.06
2022-07-28T05:28:23.830Z,99880.31
2022-07-28T05:30:58.198Z,99867.38
2022-07-28T05:33:32.124Z,99870.88
2022-07-28T05:36:03.435Z,99865.47
2022-07-28T05:38:35.145Z,99860.06
2022-07-28T05:41:05.997Z,99857.63
2022-07-28T05:43:43.181Z,99857.63
2022-07-28T05:46:37.295Z,99852.50
2022-07-28T05:49:07.856Z,99852.22
2022-07-28T05:51:41.843Z,99848.69
2022-07-28T05:54:20.451Z,99843.84
2022-07-28T05:56:58.226Z,99839.78
2022-07-28T05:59:30.415Z,99837.34
2022-07-28T06:02:03.288Z,99842.75
2022-07-28T06:04:46.252Z,99830.03
2022-07-28T06:07:18.716Z,99840.03
2022-07-28T06:09:49.871Z,99832.19
2022-07-28T06:12:20.800Z,99828.69
2022-07-28T06:14:56.127Z,99833.81
2022-07-28T06:17:29.762Z,99830.56
2022-07-28T06:20:03.338Z,99830.56
2022-07-28T06:22:57.725Z,99830.56
2022-07-28T06:25:30.871Z,99830.31
2022-07-28T06:28:04.999Z,99834.38
2022-07-28T06:30:37.849Z,99831.91
2022-07-28T06:33:15.288Z,99827.56
2022-07-28T06:35:51.362Z,99828.69
2022-07-28T06:38:31.257Z,99836.25
2022-07-28T06:41:02.426Z,99828.13
2022-07-28T06:43:39.037Z,99820.28
2022-07-28T06:49:58.687Z,99820.53
2022-07-28T07:17:55.307Z,99797.47
2022-07-28T07:20:53.100Z,99802.31
2022-07-28T07:23:27.081Z,99789.06
2022-07-28T07:25:59.216Z,99798.53
2022-07-28T07:28:30.750Z,99798.78
2022-07-28T07:31:01.978Z,99803.66
2022-07-28T07:33:39.208Z,99796.06
2022-07-28T07:36:13.706Z,99791.72
2022-07-28T07:38:44.669Z,99797.91
2022-07-28T07:41:22.363Z,99791.16
2022-07-28T07:43:53.597Z,99784.09
2022-07-28T07:46:26.976Z,99792.97
2022-07-28T07:49:00.768Z,99795.69
2022-07-28T07:51:31.470Z,99789.47
2022-07-28T07:54:02.116Z,99791.03
2022-07-28T07:56:40.781Z,99793.72
2022-07-28T07:59:14.692Z,99794.50
2022-07-28T08:01:45.454Z,99796.06
2022-07-28T08:04:19.680Z,99808.25
2022-07-28T08:06:59.484Z,99807.34
2022-07-28T08:09:33.743Z,99813.53
2022-07-28T08:12:07.968Z,99801.34
2022-07-28T08:14:38.050Z,99797.50
2022-07-28T08:24:09.153Z,99789.06
2022-07-28T08:26:50.821Z,99793.91
2022-07-28T08:29:47.756Z,99792.00
2022-07-28T08:32:56.957Z,99793.91
2022-07-28T08:39:12.295Z,99799.09
2022-07-28T08:42:09.909Z,99801.81
2022-07-28T08:52:21.061Z,99811.84
2022-07-28T08:55:35.694Z,99805.88
2022-07-28T08:59:01.360Z,99802.09
2022-07-28T09:01:39.136Z,99810.97
2022-07-28T09:04:20.344Z,99813.34
2022-07-28T09:07:06.739Z,99807.28
2022-07-28T09:09:36.543Z,99799.88
2022-07-28T09:12:08.439Z,99794.69
2022-07-28T09:14:39.102Z,99802.78
2022-07-28T09:17:09.957Z,99798.38
2022-07-28T09:19:40.407Z,99803.81
2022-07-28T09:22:11.029Z,99803.75
2022-07-28T09:24:48.385Z,99795.56
2022-07-28T09:27:19.536Z,99798.38
2022-07-28T09:30:06.149Z,99795.31
2022-07-28T09:32:46.979Z,99802.41
2022-07-28T09:35:28.594Z,99813.91
2022-07-28T09:38:04.144Z,99797.16
2022-07-28T09:40:35.956Z,99804.78
2022-07-28T09:43:06.665Z,99793.47
2022-07-28T09:49:42.997Z,99810.84
2022-07-28T09:52:55.937Z,99815.00
2022-07-28T09:55:52.735Z,99805.63
2022-07-28T09:59:38.748Z,99808.16
2022-07-28T10:02:12.614Z,99806.31
2022-07-28T10:04:52.115Z,99811.25
2022-07-28T10:23:47.098Z,99813.06
2022-07-28T10:26:56.969Z,99810.94
2022-07-28T10:29:48.550Z,99813.13
2022-07-28T10:32:34.535Z,99817.22
2022-07-28T10:35:14.109Z,99819.16
2022-07-28T10:38:04.177Z,99823.50
2022-07-28T10:40:49.039Z,99830.06
2022-07-28T10:43:54.161Z,99823.84
2022-07-28T10:46:25.652Z,99838.22
2022-07-28T10:49:10.251Z,99841.44
2022-07-28T10:52:06.572Z,99853.41
2022-07-28T10:55:06.536Z,99854.50
2022-07-28T10:57:45.921Z,99859.13
2022-07-28T11:00:53.028Z,99861.31
2022-07-28T11:03:48.839Z,99864.84
2022-07-28T11:11:30.398Z,99862.19
2022-07-28T11:14:53.304Z,99865.47
2022-07-28T11:21:17.210Z,99866.53
2022-07-28T11:24:31.473Z,99873.03
2022-07-28T11:27:08.176Z,99875.47
2022-07-28T11:29:48.647Z,99888.44
2022-07-28T11:32:19.259Z,99884.41
2022-07-28T11:35:11.030Z,99890.09
2022-07-28T11:38:20.231Z,99898.72
2022-07-28T11:41:19.862Z,99904.94
2022-07-28T11:44:48.444Z,99906.03
2022-07-28T11:47:37.443Z,99904.13
2022-07-28T11:50:21.933Z,99909.50
2022-07-28T11:53:02.058Z,99904.09
2022-07-28T12:00:12.331Z,99931.41
2022-07-28T12:02:52.016Z,99934.59
2022-07-28T12:05:25.515Z,99938.34
2022-07-28T12:07:59.990Z,99946.16
2022-07-28T12:10:56.022Z,99948.31
2022-07-28T12:13:30.698Z,99960.44
2022-07-28T12:16:01.822Z,99964.75
2022-07-28T12:18:34.579Z,99967.44
2022-07-28T12:21:09.018Z,99970.91
2022-07-28T12:23:45.818Z,99973.06
2022-07-28T12:26:49.509Z,99975.47
2022-07-28T12:33:22.262Z,99982.72
2022-07-28T12:36:27.531Z,99989.44
2022-07-28T12:39:07.259Z,99989.13
2022-07-28T12:41:50.055Z,99991.56
2022-07-28T12:44:22.139Z,99990.69
2022-07-28T12:46:53.480Z,99984.19
2022-07-28T12:49:29.160Z,99985.00
2022-07-28T12:52:03.205Z,99984.44
2022-07-28T12:54:40.268Z,99989.59
2022-07-28T12:57:10.971Z,99987.41
2022-07-28T13:03:28.254Z,99996.81
2022-07-28T13:06:41.941Z,99996.50
2022-07-28T13:10:15.203Z,99999.75
2022-07-28T13:13:17.198Z,99997.00
2022-07-28T13:16:12.370Z,100008.81
2022-07-28T13:19:43.194Z,100009.06
2022-07-28T13:22:50.487Z,100008.47
2022-07-28T13:25:23.099Z,100010.63
2022-07-28T13:35:04.506Z,100019.72
2022-07-28T13:41:14.890Z,100018.06
2022-07-28T13:43:50.577Z,100022.38
2022-07-28T13:46:22.420Z,100022.63
2022-07-28T13:48:57.387Z,100023.13
2022-07-28T13:51:31.362Z,100017.41
2022-07-28T13:54:09.385Z,100018.47
2022-07-28T13:56:46.109Z,100022.25
2022-07-28T13:59:22.062Z,100019.25
2022-07-28T14:01:54.387Z,100024.31
2022-07-28T14:04:27.948Z,100019.97
2022-07-28T14:07:06.084Z,100032.34
2022-07-28T14:09:43.420Z,100035.53
2022-07-28T14:12:15.003Z,100036.03
2022-07-28T14:14:49.716Z,100033.59
2022-07-28T14:17:45.219Z,100028.44
2022-07-28T14:20:27.287Z,100032.25
2022-07-28T14:23:12.850Z,100026.53
2022-07-28T14:25:50.862Z,100031.38
2022-07-28T14:29:00.458Z,100032.69
2022-07-28T14:32:00.765Z,100029.44
2022-07-28T14:34:43.663Z,100025.63
2022-07-28T14:37:19.908Z,100020.22
2022-07-28T14:40:28.197Z,100008.88
2022-07-28T14:43:25.454Z,100014.28
2022-07-28T14:46:16.411Z,100014.47
2022-07-28T14:52:04.713Z,100012.03
2022-07-28T14:54:49.605Z,100015.22
2022-07-28T14:58:17.476Z,100022.81
2022-07-28T15:01:18.666Z,100017.66
2022-07-28T15:03:50.795Z,100022.25
2022-07-28T15:06:28.748Z,100020.03
2022-07-28T15:09:04.140Z,100018.94
2022-07-28T15:11:35.806Z,100020.22
2022-07-28T15:14:15.023Z,100031.84
2022-07-28T15:16:47.181Z,100023.41
2022-07-28T15:19:18.828Z,100036.06
2022-07-28T15:21:53.599Z,100038.78
2022-07-28T15:24:29.021Z,100031.19
2022-07-28T15:27:01.806Z,100036.56
2022-07-28T15:29:35.436Z,100031.19
2022-07-28T15:32:10.740Z,100031.47
2022-07-28T15:34:43.883Z,100026.31
2022-07-28T15:37:15.446Z,100028.19
2022-07-28T15:39:50.493Z,100028.44
2022-07-28T15:42:24.151Z,100031.41
2022-07-28T15:45:01.267Z,100023.06
2022-07-28T15:47:33.427Z,100018.97
2022-07-28T15:50:04.779Z,100014.63
2022-07-28T15:52:35.790Z,100017.63
2022-07-28T15:55:07.091Z,100015.41
2022-07-28T15:57:40.775Z,100028.28
2022-07-28T16:00:15.121Z,100018.00
2022-07-28T16:02:46.403Z,100018.50
2022-07-28T16:05:17.795Z,100027.66
2022-07-28T16:07:48.632Z,100030.84
2022-07-28T16:10:31.968Z,100025.38
2022-07-28T16:13:04.486Z,100030.13
2022-07-28T16:15:36.635Z,100018.22
2022-07-28T16:18:11.652Z,100013.03
2022-07-28T16:20:42.760Z,100014.31
2022-07-28T16:23:14.050Z,100000.78
2022-07-28T16:25:45.323Z,100000.78
2022-07-28T16:28:22.230Z,100005.91
2022-07-28T16:30:54.414Z,100013.44
2022-07-28T16:33:33.526Z,100018.50
2022-07-28T16:36:05.994Z,100020.38
2022-07-28T16:38:37.372Z,100015.25
2022-07-28T16:41:13.007Z,100018.66
2022-07-28T16:43:48.315Z,100018.41
2022-07-28T16:46:19.113Z,100019.97
2022-07-28T16:48:50.368Z,100022.09
2022-07-28T16:51:24.208Z,100016.63
2022-07-28T16:53:57.725Z,100017.69
2022-07-28T16:56:31.797Z,100019.25
2022-07-28T16:59:02.943Z,100007.41
2022-07-28T17:01:33.915Z,100006.94
2022-07-28T17:04:04.894Z,99999.09
2022-07-28T17:06:35.778Z,99997.22
2022-07-28T17:09:06.869Z,99999.09
2022-07-28T17:11:37.784Z,99996.66
2022-07-28T17:14:14.353Z,99995.03
2022-07-28T17:16:44.645Z,99997.72
2022-07-28T17:19:15.241Z,100002.78
2022-07-28T17:21:46.585Z,99990.38
2022-07-28T17:24:17.747Z,100004.63
2022-07-28T17:29:39.803Z,100008.41
2022-07-28T17:32:10.468Z,100010.25
2022-07-28T17:34:40.898Z,100006.19
2022-07-28T17:37:12.285Z,100011.09
2022-07-28T17:39:42.800Z,100007.84
2022-07-28T17:42:13.265Z,100006.19
2022-07-28T17:44:43.826Z,100006.44
2022-07-28T17:47:14.546Z,99997.56
2022-07-28T17:49:47.206Z,100006.44
2022-07-28T17:52:17.973Z,100007.50
2022-07-28T17:55:06.787Z,100005.63
2022-07-28T17:57:39.709Z,99995.31
2022-07-28T18:00:10.694Z,99992.19
2022-07-28T18:02:44.291Z,99996.13
2022-07-28T18:05:15.151Z,99994.75
2022-07-28T18:07:50.170Z,99988.56
2022-07-28T18:10:24.964Z,99992.56
2022-07-28T18:12:57.739Z,99997.59
2022-07-28T18:15:30.650Z,99996.72
2022-07-28T18:18:02.006Z,99993.44
2022-07-28T18:20:33.142Z,99996.47
2022-07-28T18:23:03.760Z,99989.22
2022-07-28T18:25:34.874Z,99986.19
2022-07-28T18:28:09.365Z,99995.06
2022-07-28T18:30:40.117Z,100003.38
2022-07-28T18:33:10.924Z,100013.31
2022-07-28T18:35:42.060Z,100010.06
2022-07-28T18:38:15.451Z,100015.44
2022-07-28T18:40:45.861Z,100004.34
2022-07-28T18:43:23.367Z,100018.03
2022-07-28T18:45:53.953Z,100004.03
2022-07-28T18:48:27.037Z,100014.78
2022-07-28T18:50:57.615Z,100024.72
2022-07-28T18:53:28.250Z,100026.69
2022-07-28T18:55:58.187Z,100021.63
2022-07-28T18:58:28.837Z,100027.00
2022-07-28T19:01:00.459Z,100023.75
2022-07-28T19:03:30.960Z,100022.94
2022-07-28T19:06:01.482Z,100035.06
2022-07-28T19:08:32.057Z,100036.94
2022-07-28T19:11:02.472Z,100037.75
2022-07-28T19:13:32.989Z,100029.59
2022-07-28T19:16:03.709Z,100034.41
2022-07-28T19:18:34.320Z,100040.03
2022-07-28T19:21:04.753Z,100045.91
2022-07-28T19:23:35.281Z,100040.19
2022-07-28T19:26:05.879Z,100028.03
2022-07-28T19:28:36.345Z,100034.50
2022-07-28T19:31:10.009Z,100036.59
2022-07-28T19:33:44.144Z,100032.84
2022-07-28T19:36:18.053Z,100028.28
2022-07-28T19:38:48.182Z,100018.38
2022-07-28T19:41:18.298Z,100012.16
2022-07-28T19:43:48.444Z,100014.59
2022-07-28T19:46:20.299Z,100015.06
2022-07-28T19:48:50.763Z,100025.59
2022-07-28T19:51:21.309Z,100020.44
2022-07-28T19:53:52.091Z,100016.38
2022-07-28T19:56:28.801Z,100014.50
2022-07-28T19:59:01.857Z,100010.44
2022-07-28T20:01:32.771Z,100019.31
2022-07-28T20:04:05.425Z,100017.66
2022-07-28T20:06:35.960Z,100027.63
2022-07-28T20:09:06.837Z,100026.81
2022-07-28T20:11:38.247Z,100022.00
2022-07-28T20:14:08.985Z,100030.53
2022-07-28T20:16:39.249Z,100024.94
2022-07-28T20:19:09.702Z,100030.53
2022-07-28T20:21:40.478Z,100030.78
2022-07-28T20:24:11.306Z,100027.53
2022-07-28T20:26:41.697Z,100025.31
2022-07-28T20:29:12.098Z,100044.72
2022-07-28T20:31:42.736Z,100038.75
2022-07-28T20:34:14.210Z,100043.88
2022-07-28T20:36:45.131Z,100051.38
2022-07-28T20:39:43.433Z,100048.13
2022-07-28T20:42:08.863Z,100048.91
2022-07-28T20:44:39.194Z,100053.25
2022-07-28T20:47:09.775Z,100065.88
2022-07-28T20:49:40.259Z,100072.53
2022-07-28T20:52:10.926Z,100068.69
2022-07-28T20:54:41.255Z,100066.00
2022-07-28T20:57:12.223Z,100070.81
2022-07-28T20:59:43.219Z,100073.50
2022-07-28T21:02:13.890Z,100086.09
2022-07-28T21:04:44.920Z,100071.53
2022-07-28T21:07:15.786Z,100074.66
2022-07-28T21:09:47.768Z,100083.19
2022-07-28T21:12:18.053Z,100085.31
2022-07-28T21:14:48.447Z,100084.50
2022-07-28T21:17:18.476Z,100082.84
2022-07-28T21:19:51.276Z,100090.69
2022-07-28T21:22:23.292Z,100095.44
2022-07-28T21:24:56.829Z,100088.00
2022-07-28T21:27:27.021Z,100099.59
2022-07-28T21:32:25.560Z,100110.06
2022-07-28T21:34:55.678Z,100109.50
2022-07-28T21:37:25.644Z,100110.91
2022-07-28T21:39:55.775Z,100111.94
2022-07-28T21:42:25.896Z,100117.31
2022-07-28T21:44:55.921Z,100121.66
2022-07-28T21:47:26.282Z,100127.84
2022-07-28T21:49:57.232Z,100134.00
2022-07-28T21:52:27.540Z,100133.78
2022-07-28T21:54:57.645Z,100127.38
2022-07-28T21:57:27.739Z,100130.06
2022-07-28T21:59:58.434Z,100124.69
2022-07-28T22:02:29.261Z,100141.84
2022-07-28T22:04:59.591Z,100130.06
2022-07-28T22:07:29.812Z,100142.19
2022-07-28T22:09:59.340Z,100133.88
2022-07-28T22:12:29.691Z,100136.13
2022-07-28T22:14:59.901Z,100136.69
2022-07-28T22:17:29.936Z,100137.84
2022-07-28T22:20:00.351Z,100138.53
2022-07-28T22:22:30.625Z,100137.00
2022-07-28T22:25:00.856Z,100132.53
2022-07-28T22:27:31.685Z,100125.88
2022-07-28T22:30:02.036Z,100126.78
2022-07-28T22:32:32.654Z,100115.31
2022-07-28T22:35:02.991Z,100117.84
2022-07-28T22:37:33.690Z,100114.94
2022-07-28T22:40:03.986Z,100126.34
2022-07-28T22:42:34.253Z,100113.72
2022-07-28T22:45:04.556Z,100106.31
2022-07-28T22:47:35.182Z,100115.09
2022-07-28T22:50:07.398Z,100117.06
2022-07-28T22:52:38.437Z,100120.63
2022-07-28T22:55:09.533Z,100110.22
2022-07-28T22:57:40.355Z,100117.88
2022-07-28T23:00:12.208Z,100115.63
2022-07-28T23:02:43.192Z,100111.38
2022-07-28T23:05:14.154Z,100111.78
2022-07-28T23:07:53.515Z,100115.72
2022-07-28T23:10:28.126Z,100117.41
2022-07-28T23:12:58.847Z,100111.28
2022-07-28T23:15:39.436Z,100118.69
2022-07-28T23:18:14.961Z,100125.59
2022-07-28T23:20:46.320Z,100130.81
2022-07-28T23:23:20.115Z,100130.59
2022-07-28T23:25:53.447Z,100132.09
2022-07-28T23:28:24.504Z,100144.53
2022-07-28T23:30:55.220Z,100140.88
2022-07-28T23:33:56.095Z,100136.09
2022-07-28T23:36:26.140Z,100143.75
2022-07-28T23:38:59.765Z,100150.59
2022-07-28T23:41:30.078Z,100151.47
2022-07-28T23:44:00.633Z,100148.03
2022-07-28T23:46:30.896Z,100145.16
2022-07-28T23:49:00.400Z,100148.75
2022-07-28T23:51:41.854Z,100147.97
2022-07-28T23:54:18.020Z,100143.47
2022-07-28T23:56:48.326Z,100149.97
2022-07-28T23:59:18.666Z,100148.41
